Terminal Aerodrome Forecast
Issued by NWS

Home | Current Version | Previous Version | Text Only | Print | Product List | Glossary On
Versions: 1 2 3 4 5 6 7 8 9 10 11 12 13
000
FTUS45 KTFX 010500
TAFHVR
TAF
KHVR 010520Z 0106/0206 30015G22KT P6SM VCSH SCT030 OVC050
      TEMPO 0106/0110 5SM -SHRA BR SCT015 OVC030
     FM011000 27009KT P6SM SCT030 BKN080
     FM011600 30011KT P6SM SCT050
     FM020200 24009KT P6SM SKC=

USA.gov is the U.S. government's official web portal to all federal, state and local government web resources and services.